nopuedocreer.com alexa rank chart, nopuedocreer.com alexa rank daily changes

nopuedocreer.com alexa rank chart, nopuedocreer.com alexa rank daily changes

nopuedocreer.com
Actual rank:
230 283

RANK HISTORY

Date Rank Diff
2017/11/20 230 283 -712
2017/11/19 230 995 -5 460
2017/11/18 236 455 +81
2017/11/17 236 374 -3 951
2017/11/16 240 325 +4 360
2017/11/15 235 965 -2 146
2017/11/14 238 111 +2 569
2017/11/13 235 542 -2 665
2017/11/12 238 207 +1 165
2017/11/11 237 042 +2 894
2017/11/10 234 148 +803
2017/11/09 233 345 -1 953
2017/11/08 235 298 -6 885
2017/11/07 242 183 -75
2017/11/06 242 258 -5 637
2017/11/05 247 895 -1 751
2017/11/04 249 646 +2 511
2017/11/03 247 135 +2 950
2017/11/02 244 185 -721
2017/11/01 244 906 -880
2017/10/31 245 786 -9 353
2017/10/30 255 139 +3 147
2017/10/29 251 992 -1 839
2017/10/28 253 831 +5 559
2017/10/27 248 272 +496
2017/10/26 247 776 +4 042
2017/10/25 243 734 +2 179
2017/10/24 241 555 -8 798
2017/10/23 250 353 +6 457
2017/10/22 243 896 -6 246
2017/10/21 250 142 +12 258
2017/10/20 237 884 -1 800
2017/10/19 239 684 +17 696
2017/10/18 221 988 -3 722
2017/10/17 225 710 +11 655
2017/10/16 214 055 -2 004
2017/10/14 216 059 -5 079
2017/10/13 221 138 +4 153
2017/10/12 216 985 -2 279
2017/10/11 219 264 +2 158
2017/10/10 217 106 -578
2017/10/09 217 684 +1 256
2017/10/08 216 428 +4 599
2017/10/07 211 829 +8 210
2017/10/06 203 619 +200
2017/10/05 203 419 +1 942
2017/10/04 201 477 -665
2017/10/03 202 142 +1 141
2017/10/02 201 001 +3 831
2017/10/01 197 170 -4 221
2017/09/30 201 391 +1 580
2017/09/29 199 811 +1 948
2017/09/28 197 863 +1 766
2017/09/27 196 097 +4 540
2017/09/26 191 557 +914
2017/09/25 190 643 +431
2017/09/24 190 212 -2 978
2017/09/23 193 190 -324
2017/09/22 193 514

WIDGET FOR YOUR SITE

DOMAINS WITH THE NEAREST RANK

Domain Rank
naminum.com 230 278
freepornhdonline.org 230 279
amia.org 230 280
dji-club.ru 230 281
xart.video 230 282
nopuedocreer.com 230 283
edu4schools.gr 230 284
hlaxi.xyz 230 285
versicherungsbote.de 230 286
ctonlineauctions.com 230 287
chadstone.com.au 230 288

DOMAINS WITH THE NEAREST RANK BY TLD .com

Domain Rank
koreanwikiproject.com 230 272
pinping01.com 230 273
kangoexpress.com 230 274
tempus-termine.com 230 276
naminum.com 230 278
nopuedocreer.com 230 283
ctonlineauctions.com 230 287
fleet-up.com 230 291
zjuqsc.com 230 293
juanagustin.com 230 294
tripcrafters.com 230 295